Time;durP1;ratioP1;P1;durP2;ratioP2;P2;SDS_P1;SDS_P2;PMS_P1;PMS_P2;Temp;Humidity;BMP_temperature;BMP_pressure;BME280_temperature;BME280_humidity;BME280_pressure;Samples;Min_cycle;Max_cycle;Signal;HPM_P1;HPM_P2
2021/04/13 00:01:11;;;;;;;4.40;3.72;;;;;;;7.39;74.25;102582.56;5051030;28;20041;-51
2021/04/13 00:03:52;;;;;;;5.15;3.75;;;;;;;7.33;74.18;102581.75;5040472;28;20077;-49
2021/04/13 00:06:48;;;;;;;5.88;4.00;;;;;;;7.32;74.41;102579.28;5037468;28;20105;-48
2021/04/13 00:09:31;;;;;;;6.18;4.70;;;;;;;7.27;74.43;102584.81;5030850;28;20053;-49
2021/04/13 00:12:07;;;;;;;4.78;3.72;;;;;;;7.29;74.51;102579.84;5031508;28;20049;-52
2021/04/13 00:14:39;;;;;;;10.48;4.00;;;;;;;7.31;74.56;102577.63;5050679;28;20083;-47
2021/04/13 00:17:08;;;;;;;;;;;;;;;7.27;74.31;102571.88;5038379;28;20076;-51
2021/04/13 00:19:55;;;;;;;4.35;3.38;;;;;;;7.30;74.23;102576.00;5047287;28;19928;-46
2021/04/13 00:22:22;;;;;;;5.00;3.58;;;;;;;7.27;74.34;102577.38;5042036;28;20128;-47
2021/04/13 00:24:50;;;;;;;4.88;3.42;;;;;;;7.25;74.53;102579.56;5046387;28;20064;-48
2021/04/13 00:27:20;;;;;;;4.97;3.67;;;;;;;7.22;74.55;102573.81;5036828;28;20120;-49
2021/04/13 00:29:47;;;;;;;4.50;3.22;;;;;;;7.19;74.62;102585.38;5047924;28;20041;-50
2021/04/13 00:32:14;;;;;;;6.63;4.65;;;;;;;7.12;74.77;102582.88;5048971;28;20100;-50
2021/04/13 00:35:09;;;;;;;5.50;4.03;;;;;;;7.12;74.92;102579.34;5055441;28;20044;-50
2021/04/13 00:37:35;;;;;;;7.05;4.10;;;;;;;7.09;74.83;102579.88;5052125;28;20123;-50
2021/04/13 00:40:25;;;;;;;4.22;3.80;;;;;;;7.03;75.31;102581.00;5055150;28;20048;-49
2021/04/13 00:42:54;;;;;;;6.35;3.45;;;;;;;6.95;75.44;102584.28;5053951;28;20156;-46
2021/04/13 00:45:26;;;;;;;6.38;4.15;;;;;;;6.90;75.46;102581.53;5054147;28;20069;-50
2021/04/13 00:47:54;;;;;;;9.02;4.30;;;;;;;6.92;75.36;102579.34;5054137;28;20052;-52
2021/04/13 00:50:42;;;;;;;6.70;4.07;;;;;;;6.86;75.83;102585.97;5055337;28;20053;-55
2021/04/13 00:53:13;;;;;;;5.82;3.92;;;;;;;6.81;75.59;102578.50;5054542;28;20084;-46
2021/04/13 00:55:48;;;;;;;7.88;5.13;;;;;;;6.79;76.01;102591.72;5043041;28;20390;-49
2021/04/13 00:58:21;;;;;;;6.05;4.90;;;;;;;6.78;75.85;102583.75;5054651;28;20076;-47
2021/04/13 01:00:53;;;;;;;5.40;3.63;;;;;;;6.75;75.82;102591.44;5054258;28;20140;-46
2021/04/13 01:03:20;;;;;;;6.00;4.72;;;;;;;6.75;76.02;102587.91;5053986;28;20043;-49
2021/04/13 01:05:55;;;;;;;5.75;4.68;;;;;;;6.66;76.52;102587.59;5054121;28;20079;-48
2021/04/13 01:08:23;;;;;;;6.47;4.63;;;;;;;6.64;76.46;102588.97;5053977;28;20129;-46
2021/04/13 01:10:55;;;;;;;5.70;4.38;;;;;;;6.64;76.17;102580.72;5054493;28;20140;-47
2021/04/13 01:13:32;;;;;;;8.27;4.35;;;;;;;6.63;76.70;102590.06;5036223;28;20134;-51
2021/04/13 01:15:59;;;;;;;6.43;4.40;;;;;;;6.61;76.54;102573.84;5053354;28;20136;-46
2021/04/13 01:18:35;;;;;;;7.35;4.80;;;;;;;6.56;76.74;102579.34;5054436;28;20051;-46
2021/04/13 01:21:29;;;;;;;6.90;4.97;;;;;;;6.50;77.31;102583.19;5054075;28;20136;-50
2021/04/13 01:24:19;;;;;;;7.60;4.70;;;;;;;6.49;76.86;102587.03;5054700;28;20466;-49
2021/04/13 01:26:49;;;;;;;8.35;4.80;;;;;;;6.47;76.87;102585.66;5034717;28;20076;-46
2021/04/13 01:29:17;;;;;;;6.47;5.25;;;;;;;6.43;76.71;102585.38;5052557;28;20110;-46
2021/04/13 01:31:52;;;;;;;10.05;4.68;;;;;;;6.42;76.55;102580.97;5049561;28;20132;-50
2021/04/13 01:34:24;;;;;;;7.13;5.18;;;;;;;6.39;76.75;102586.19;5034516;28;20050;-51
2021/04/13 01:37:41;;;;;;;7.25;5.93;;;;;;;6.37;76.89;102585.63;5033727;28;20073;-49
2021/04/13 01:42:39;;;;;;;9.35;5.43;;;;;;;6.33;76.68;102584.53;5039022;28;20401;-50
2021/04/13 01:45:11;;;;;;;7.47;5.63;;;;;;;6.29;76.86;102587.00;5043300;28;20128;-47
2021/04/13 01:47:38;;;;;;;9.35;6.30;;;;;;;6.23;77.00;102588.06;5040065;28;20072;-51
2021/04/13 01:50:19;;;;;;;7.72;6.00;;;;;;;6.19;77.15;102586.97;5053893;28;20394;-51
2021/04/13 01:52:49;;;;;;;9.75;6.75;;;;;;;6.18;76.86;102584.47;5045728;28;20384;-47
2021/04/13 01:55:22;;;;;;;12.70;6.53;;;;;;;6.10;76.96;102589.41;5016221;28;20467;-47
2021/04/13 01:58:16;;;;;;;11.35;6.55;;;;;;;6.06;77.44;102587.50;5033691;28;20055;-48
2021/04/13 02:01:08;;;;;;;9.88;6.35;;;;;;;6.05;77.33;102580.31;5041557;28;20084;-47
2021/04/13 02:03:34;;;;;;;7.33;5.20;;;;;;;5.99;77.22;102581.41;5052342;28;20497;-47
2021/04/13 02:06:10;;;;;;;7.85;5.70;;;;;;;5.94;77.38;102573.13;5036709;28;20771;-51
2021/04/13 02:08:49;;;;;;;8.23;5.95;;;;;;;5.90;77.92;102586.63;5033322;28;20124;-49
2021/04/13 02:11:22;;;;;;;11.82;5.70;;;;;;;5.95;77.68;102591.28;5033686;28;20136;-46
2021/04/13 02:13:57;;;;;;;8.55;5.65;;;;;;;5.93;77.89;102582.50;5033774;28;20065;-50
2021/04/13 02:16:32;;;;;;;10.20;7.13;;;;;;;5.94;77.58;102584.13;4999136;28;20132;-52
2021/04/13 02:19:20;;;;;;;6.53;5.40;;;;;;;5.89;77.23;102579.44;5033789;28;20502;-49
2021/04/13 02:21:49;;;;;;;9.10;5.57;;;;;;;5.88;77.28;102585.19;5033346;28;20776;-47
2021/04/13 02:24:19;;;;;;;7.60;5.60;;;;;;;5.86;77.57;102587.41;5033427;28;20513;-50
2021/04/13 02:26:45;;;;;;;7.20;4.43;;;;;;;5.75;78.06;102592.00;5026914;28;20111;-50
2021/04/13 02:29:13;;;;;;;10.95;5.40;;;;;;;5.76;77.93;102592.81;5044222;28;20482;-50
2021/04/13 02:31:49;;;;;;;7.28;4.63;;;;;;;5.74;78.04;102586.78;5039548;28;20049;-50
2021/04/13 02:34:23;;;;;;;9.02;5.38;;;;;;;5.74;78.03;102595.03;5032159;28;20491;-50
2021/04/13 02:36:56;;;;;;;7.70;5.05;;;;;;;5.75;78.08;102591.16;5039931;28;20446;-53
2021/04/13 02:39:25;;;;;;;5.97;4.40;;;;;;;5.75;77.68;102592.00;5040965;28;20075;-53
2021/04/13 02:41:55;;;;;;;8.38;5.60;;;;;;;5.73;78.16;102587.88;5051641;28;20040;-48
2021/04/13 02:44:24;;;;;;;10.73;5.47;;;;;;;5.69;78.10;102587.59;5052132;28;20467;-47
2021/04/13 02:46:55;;;;;;;6.43;5.40;;;;;;;5.70;77.95;102593.88;5035055;28;20041;-50
2021/04/13 02:49:23;;;;;;;7.05;5.38;;;;;;;5.70;78.02;102593.88;5052296;28;20072;-50
2021/04/13 02:51:59;;;;;;;8.25;4.57;;;;;;;5.68;78.03;102585.94;5039579;28;20565;-51
2021/04/13 02:54:30;;;;;;;6.20;4.93;;;;;;;5.66;77.74;102590.88;5048920;28;20048;-53
2021/04/13 02:57:01;;;;;;;7.30;5.05;;;;;;;5.67;77.99;102594.41;5052644;28;20037;-51
2021/04/13 02:59:37;;;;;;;7.03;4.63;;;;;;;5.62;78.08;102599.91;5051430;28;20072;-52
2021/04/13 03:02:17;;;;;;;6.88;4.45;;;;;;;5.61;78.21;102596.34;5051183;28;20033;-48
2021/04/13 03:04:49;;;;;;;6.88;5.10;;;;;;;5.60;77.86;102596.59;5049210;28;20044;-50
2021/04/13 03:07:21;;;;;;;8.30;4.90;;;;;;;5.53;78.07;102605.88;5052297;28;20041;-52
2021/04/13 03:09:50;;;;;;;11.38;5.22;;;;;;;5.55;77.86;102602.91;5023349;28;20076;-52
2021/04/13 03:12:18;;;;;;;7.07;4.63;;;;;;;5.52;77.88;102604.25;5052007;28;20517;-50
2021/04/13 03:14:54;;;;;;;7.57;4.55;;;;;;;5.48;78.25;102602.31;5050331;28;20136;-48
2021/04/13 03:17:25;;;;;;;6.68;4.07;;;;;;;5.41;78.53;102599.78;5052091;28;20202;-53
2021/04/13 03:19:58;;;;;;;8.70;5.05;;;;;;;5.40;78.27;102600.06;5051181;28;20458;-51
2021/04/13 03:22:25;;;;;;;5.68;4.43;;;;;;;5.38;78.52;102607.72;5043030;28;20045;-50
2021/04/13 03:24:52;;;;;;;8.00;4.88;;;;;;;5.37;78.65;102597.84;5048554;28;20073;-52
2021/04/13 03:27:24;;;;;;;9.27;4.78;;;;;;;5.38;78.16;102597.56;5015182;28;20061;-49
2021/04/13 03:29:56;;;;;;;10.98;4.68;;;;;;;5.38;78.44;102607.72;5045636;28;20538;-50
2021/04/13 03:32:25;;;;;;;10.30;5.40;;;;;;;5.33;78.70;102594.78;5051108;28;20055;-52
2021/04/13 03:34:51;;;;;;;9.32;5.72;;;;;;;5.29;78.69;102604.69;5051834;28;20437;-49
2021/04/13 03:37:18;;;;;;;8.32;5.72;;;;;;;5.25;78.93;102598.03;5048984;28;20052;-49
2021/04/13 03:39:46;;;;;;;7.57;4.63;;;;;;;5.26;78.50;102596.97;5029950;28;20041;-55
2021/04/13 03:42:32;;;;;;;8.32;4.35;;;;;;;5.17;79.23;102601.28;5049489;28;20508;-49
2021/04/13 03:44:59;;;;;;;5.68;4.25;;;;;;;5.18;79.03;102602.09;5035423;28;20069;-53
2021/04/13 03:47:30;;;;;;;8.00;4.75;;;;;;;5.20;78.73;102600.75;5045801;28;20045;-54
2021/04/13 03:49:58;;;;;;;7.50;4.40;;;;;;;5.22;78.66;102605.97;5051300;28;20071;-49
2021/04/13 03:52:29;;;;;;;10.38;4.88;;;;;;;5.25;78.57;102605.44;5050385;28;20076;-49
2021/04/13 03:54:56;;;;;;;7.72;4.95;;;;;;;5.25;78.31;102597.19;5043482;28;20037;-49
2021/04/13 03:57:36;;;;;;;6.53;4.22;;;;;;;5.19;78.53;102614.75;5035714;28;20092;-50
2021/04/13 04:00:06;;;;;;;8.05;4.88;;;;;;;5.18;78.62;102611.19;5043958;28;20045;-55
2021/04/13 04:02:33;;;;;;;7.65;4.57;;;;;;;5.18;78.55;102613.94;5048160;28;20048;-52
2021/04/13 04:05:23;;;;;;;7.30;5.40;;;;;;;5.12;78.79;102611.38;5050451;28;20068;-50
2021/04/13 04:10:33;;;;;;;6.53;3.47;;;;;;;5.05;78.75;102603.41;5050597;28;20466;-53
2021/04/13 04:13:06;;;;;;;7.03;4.00;;;;;;;5.01;78.47;102607.75;5049898;28;20045;-54
2021/04/13 04:15:40;;;;;;;8.65;4.18;;;;;;;4.96;78.76;102615.94;5018664;28;20053;-54
2021/04/13 04:18:30;;;;;;;8.70;4.50;;;;;;;4.97;78.59;102611.28;5024217;28;20126;-54
2021/04/13 04:21:02;;;;;;;9.57;5.50;;;;;;;4.98;78.75;102602.78;5031540;28;20103;-53
2021/04/13 04:23:32;;;;;;;8.30;5.15;;;;;;;4.89;78.60;102612.59;5026815;28;20111;-52
2021/04/13 04:26:07;;;;;;;6.57;4.38;;;;;;;4.85;79.10;102604.06;5014585;28;20053;-54
2021/04/13 04:28:41;;;;;;;8.70;4.88;;;;;;;4.80;78.92;102609.50;5044346;28;20080;-48
2021/04/13 04:31:35;;;;;;;6.30;4.28;;;;;;;4.81;79.14;102619.41;5037814;28;20046;-54
2021/04/13 04:34:12;;;;;;;6.40;5.05;;;;;;;4.86;78.66;102615.88;5009384;28;20404;-55
2021/04/13 04:36:55;;;;;;;5.72;4.50;;;;;;;4.87;78.72;102628.50;5022018;28;20045;-51
2021/04/13 04:39:34;;;;;;;8.50;4.70;;;;;;;4.77;78.72;102620.16;5031004;28;20069;-51
2021/04/13 04:42:31;;;;;;;9.35;4.00;;;;;;;4.69;79.01;102620.63;5030814;28;20558;-50
2021/04/13 04:45:12;;;;;;;6.35;4.93;;;;;;;4.71;78.89;102624.75;5026009;28;20462;-53
2021/04/13 04:47:40;;;;;;;12.35;5.28;;;;;;;4.77;78.44;102622.91;5038301;28;20137;-55
2021/04/13 04:50:08;;;;;;;9.75;5.20;;;;;;;4.76;78.30;102626.75;5013586;28;20042;-55
2021/04/13 04:52:37;;;;;;;6.00;4.35;;;;;;;4.74;78.30;102628.91;5022866;28;20060;-50
2021/04/13 04:55:06;;;;;;;11.93;4.85;;;;;;;4.71;78.88;102632.19;5030641;28;20045;-50
2021/04/13 04:57:32;;;;;;;10.02;5.07;;;;;;;4.73;78.83;102632.75;5030439;28;20052;-51
2021/04/13 04:59:59;;;;;;;7.80;4.10;;;;;;;4.70;78.95;102627.78;5030490;28;20132;-50
2021/04/13 05:02:25;;;;;;;5.93;4.07;;;;;;;4.70;78.73;102630.53;5030384;28;20121;-49
2021/04/13 05:04:52;;;;;;;8.20;4.40;;;;;;;4.72;78.88;102628.34;5031015;28;20676;-52
2021/04/13 05:07:18;;;;;;;10.02;4.57;;;;;;;4.71;78.69;102633.00;5030018;28;20080;-50
2021/04/13 05:09:45;;;;;;;7.30;3.85;;;;;;;4.69;78.70;102626.94;5030703;28;20103;-49
2021/04/13 05:12:12;;;;;;;8.02;3.75;;;;;;;4.67;78.81;102617.31;5032758;28;20033;-48
2021/04/13 05:14:38;;;;;;;8.10;4.28;;;;;;;4.65;78.41;102633.22;5036514;28;20100;-51
2021/04/13 05:17:04;;;;;;;10.00;4.32;;;;;;;4.64;78.66;102628.81;5051054;28;20072;-52
2021/04/13 05:19:31;;;;;;;6.80;3.88;;;;;;;4.64;78.56;102639.78;5033847;28;20153;-49
2021/04/13 05:21:57;;;;;;;8.77;4.05;;;;;;;4.62;78.55;102634.56;5036595;28;20044;-48
2021/04/13 05:24:23;;;;;;;5.90;3.90;;;;;;;4.56;79.05;102632.03;5048287;28;20144;-48
2021/04/13 05:26:51;;;;;;;6.45;3.60;;;;;;;4.53;79.30;102627.88;5035634;28;20060;-51
2021/04/13 05:29:17;;;;;;;9.13;4.93;;;;;;;4.53;78.83;102627.88;5051381;28;20076;-50
2021/04/13 05:31:44;;;;;;;7.70;4.07;;;;;;;4.49;79.13;102625.94;5044548;28;20041;-51
2021/04/13 05:34:11;;;;;;;8.43;3.88;;;;;;;4.49;79.08;102623.19;5053717;28;20041;-49
2021/04/13 05:36:38;;;;;;;6.03;3.90;;;;;;;4.48;79.24;102632.50;5053977;28;20478;-47
2021/04/13 05:39:06;;;;;;;7.50;3.97;;;;;;;4.46;79.40;102627.28;5053412;28;20044;-50
2021/04/13 05:41:33;;;;;;;8.05;4.68;;;;;;;4.48;79.48;102630.59;5052453;28;20639;-49
2021/04/13 05:44:02;;;;;;;5.72;3.95;;;;;;;4.50;79.19;102644.06;5053175;28;20148;-47
2021/04/13 05:46:33;;;;;;;5.72;3.95;;;;;;;4.48;79.62;102632.50;5052372;28;20120;-48
2021/04/13 05:49:01;;;;;;;5.65;4.28;;;;;;;4.47;79.30;102644.56;5053424;28;20490;-49
2021/04/13 05:51:29;;;;;;;8.85;4.18;;;;;;;4.49;79.25;102642.38;5053930;28;20049;-47
2021/04/13 05:53:55;;;;;;;7.80;4.50;;;;;;;4.49;79.14;102636.91;5053033;28;20069;-47
2021/04/13 05:56:27;;;;;;;7.38;3.80;;;;;;;4.42;79.21;102641.78;5035412;28;20060;-47
2021/04/13 05:58:55;;;;;;;4.82;3.70;;;;;;;4.44;79.38;102647.81;5053177;28;20083;-51
2021/04/13 06:01:25;;;;;;;6.97;4.90;;;;;;;4.42;79.45;102647.25;5053341;28;20521;-48
2021/04/13 06:03:51;;;;;;;5.05;4.35;;;;;;;4.45;79.50;102652.22;5052898;28;20144;-49
2021/04/13 06:06:18;;;;;;;8.10;4.25;;;;;;;4.48;79.30;102654.44;5051810;28;20504;-47
2021/04/13 06:08:45;;;;;;;7.03;4.18;;;;;;;4.54;79.61;102651.50;5034973;28;20077;-46
2021/04/13 06:11:15;;;;;;;13.77;5.25;;;;;;;4.57;79.05;102652.91;5053359;28;20064;-53
2021/04/13 06:13:43;;;;;;;4.18;3.15;;;;;;;4.58;79.65;102654.56;5053518;28;20139;-49
2021/04/13 06:16:11;;;;;;;8.30;4.35;;;;;;;4.62;79.07;102659.25;5051661;28;20043;-49
2021/04/13 06:18:37;;;;;;;11.38;4.97;;;;;;;4.67;79.11;102666.72;5047448;28;20072;-50
2021/04/13 06:21:05;;;;;;;5.97;4.28;;;;;;;4.69;79.25;102672.75;5052155;28;20095;-47
2021/04/13 06:23:31;;;;;;;6.32;4.35;;;;;;;4.72;79.47;102670.34;5053325;28;20045;-51
2021/04/13 06:25:57;;;;;;;7.60;4.40;;;;;;;4.77;79.33;102675.03;5052219;28;20077;-48
2021/04/13 06:28:26;;;;;;;9.70;4.50;;;;;;;4.79;79.32;102675.63;5051766;28;20040;-48
2021/04/13 06:30:52;;;;;;;7.20;3.85;;;;;;;4.79;79.51;102670.94;5052654;28;20083;-47
2021/04/13 06:33:19;;;;;;;6.15;4.18;;;;;;;4.83;79.49;102676.75;5037762;28;20053;-51
2021/04/13 06:35:46;;;;;;;6.03;4.05;;;;;;;4.89;79.80;102683.94;5040245;28;20131;-48
2021/04/13 06:38:22;;;;;;;9.43;4.57;;;;;;;4.91;79.61;102685.34;5040448;28;20131;-49
2021/04/13 06:41:04;;;;;;;7.22;3.90;;;;;;;4.96;79.85;102691.97;5045581;28;20553;-52
2021/04/13 06:43:55;;;;;;;7.25;4.07;;;;;;;4.99;79.63;102692.28;5036763;28;20132;-50
2021/04/13 06:46:27;;;;;;;6.25;3.78;;;;;;;5.07;79.46;102694.53;5048113;28;20041;-48
2021/04/13 06:48:53;;;;;;;;;;;;;;;5.07;79.55;102689.06;5051128;28;20041;-49
2021/04/13 06:51:27;;;;;;;7.97;4.05;;;;;;;5.10;79.32;102694.03;5049657;28;19924;-49
2021/04/13 06:54:11;;;;;;;5.13;3.58;;;;;;;5.16;79.63;102692.16;5050519;28;20127;-49
2021/04/13 06:57:07;;;;;;;7.28;3.45;;;;;;;5.20;79.72;102698.75;5049990;28;20041;-57
2021/04/13 06:59:58;;;;;;;7.47;3.97;;;;;;;5.26;80.10;102703.22;5030835;28;20124;-48
2021/04/13 07:02:50;;;;;;;7.28;4.78;;;;;;;5.33;80.00;102699.16;5044068;28;20064;-53
2021/04/13 07:05:32;;;;;;;7.05;4.30;;;;;;;5.39;79.57;102694.53;5031513;28;20077;-50
2021/04/13 07:08:05;;;;;;;6.63;4.20;;;;;;;5.44;79.93;102698.16;5031462;28;20148;-50
2021/04/13 07:10:56;;;;;;;11.57;5.10;;;;;;;5.46;80.25;102698.72;5047290;28;20787;-49
2021/04/13 07:14:04;;;;;;;6.65;3.67;;;;;;;5.51;79.96;102696.00;5047962;28;20090;-52
2021/04/13 07:16:58;;;;;;;6.55;3.90;;;;;;;5.58;79.74;102700.44;5047982;28;20048;-48
2021/04/13 07:19:57;;;;;;;7.40;3.55;;;;;;;5.63;80.04;102708.72;5041042;28;20049;-51
2021/04/13 07:22:53;;;;;;;9.95;3.92;;;;;;;5.69;79.73;102707.66;5040701;28;20041;-49
2021/04/13 07:25:50;;;;;;;4.72;3.38;;;;;;;5.75;80.00;102712.09;5050036;28;20517;-48
2021/04/13 07:29:18;;;;;;;9.27;3.15;;;;;;;5.83;80.47;102714.34;5043578;28;20395;-51
2021/04/13 07:32:24;;;;;;;7.20;3.72;;;;;;;5.87;80.23;102716.34;5036118;28;20080;-52
2021/04/13 07:34:58;;;;;;;7.10;3.10;;;;;;;5.92;80.15;102707.28;5040357;28;20087;-52
2021/04/13 07:37:36;;;;;;;5.50;2.70;;;;;;;5.97;80.26;102712.81;5042498;28;20135;-48
2021/04/13 07:40:12;;;;;;;7.18;3.40;;;;;;;6.03;80.26;102711.75;5049138;28;20041;-50
2021/04/13 07:42:46;;;;;;;5.50;2.88;;;;;;;6.09;80.07;102719.75;5048412;28;20156;-53
2021/04/13 07:45:52;;;;;;;3.45;2.55;;;;;;;6.14;80.39;102718.97;5025905;28;20411;-55
2021/04/13 07:48:56;;;;;;;4.38;2.60;;;;;;;6.24;80.15;102715.41;5046585;28;20053;-49
2021/04/13 07:51:44;;;;;;;6.35;3.38;;;;;;;6.34;79.95;102713.53;5048469;28;20045;-50
2021/04/13 07:54:20;;;;;;;6.53;3.50;;;;;;;6.43;80.01;102717.44;5048764;28;20129;-50
2021/04/13 07:57:00;;;;;;;5.95;3.08;;;;;;;6.52;80.08;102721.31;5048758;28;20530;-50
2021/04/13 07:59:31;;;;;;;10.13;4.13;;;;;;;6.60;79.97;102715.28;5048632;28;20615;-49
2021/04/13 08:01:57;;;;;;;5.22;2.83;;;;;;;6.68;80.42;102719.44;5030261;28;20106;-49
2021/04/13 08:04:27;;;;;;;4.13;2.70;;;;;;;6.77;80.35;102725.25;5047631;28;20033;-49
2021/04/13 08:07:42;;;;;;;6.22;2.95;;;;;;;6.85;80.03;102720.03;5037642;28;20037;-51
2021/04/13 08:10:37;;;;;;;9.45;2.78;;;;;;;6.96;80.26;102724.47;5045891;28;20048;-51
2021/04/13 08:13:12;;;;;;;7.80;3.75;;;;;;;7.05;79.96;102721.97;5048606;28;20169;-52
2021/04/13 08:15:41;;;;;;;7.53;3.22;;;;;;;7.16;80.61;102718.16;5048151;28;20509;-53
2021/04/13 08:18:47;;;;;;;9.23;2.83;;;;;;;7.27;81.10;102723.41;5048493;28;20242;-52
2021/04/13 08:21:27;;;;;;;9.30;3.13;;;;;;;7.46;81.28;102734.69;4967515;28;20050;-53
2021/04/13 08:23:54;;;;;;;5.47;3.05;;;;;;;7.61;81.78;102731.91;5040907;28;20127;-53
2021/04/13 08:26:26;;;;;;;5.13;2.85;;;;;;;7.78;81.53;102726.91;5042974;28;20084;-52
2021/04/13 08:28:55;;;;;;;11.15;2.80;;;;;;;7.95;81.64;102721.94;5020337;28;20084;-54
2021/04/13 08:34:51;;;;;;;4.35;2.20;;;;;;;8.37;84.98;102729.81;5044940;28;20055;-54
2021/04/13 08:37:39;;;;;;;6.47;2.60;;;;;;;8.72;84.80;102726.06;5048387;28;20131;-55
2021/04/13 08:40:14;;;;;;;6.95;2.85;;;;;;;9.09;84.60;102731.09;5048899;28;20552;-52
2021/04/13 08:42:59;;;;;;;3.95;2.45;;;;;;;9.69;83.14;102733.34;5048294;28;20410;-51
2021/04/13 08:45:41;;;;;;;8.45;2.60;;;;;;;10.42;83.16;102729.56;5048520;28;20122;-56
2021/04/13 08:48:39;;;;;;;7.38;2.78;;;;;;;11.27;81.66;102733.06;5049198;28;20084;-53
2021/04/13 08:51:11;;;;;;;6.97;2.50;;;;;;;12.00;79.86;102730.41;5027377;28;20049;-52
2021/04/13 08:53:47;;;;;;;4.38;2.25;;;;;;;12.58;76.92;102728.66;5052607;28;20118;-58
2021/04/13 08:56:20;;;;;;;5.20;2.60;;;;;;;13.20;71.16;102731.72;5052267;28;20156;-57
2021/04/13 08:59:09;;;;;;;4.55;2.45;;;;;;;13.84;72.02;102731.22;5050420;28;20055;-53
2021/04/13 09:01:36;;;;;;;3.40;2.28;;;;;;;14.41;69.70;102734.09;5051582;28;20037;-52
2021/04/13 09:04:08;;;;;;;7.78;2.33;;;;;;;14.58;67.62;102739.72;5051344;28;20049;-54
2021/04/13 09:07:00;;;;;;;10.70;2.85;;;;;;;14.28;64.01;102740.56;5051814;28;20043;-54
2021/04/13 09:09:29;;;;;;;4.18;1.88;;;;;;;13.72;65.54;102738.47;5052209;28;20061;-52
2021/04/13 09:12:08;;;;;;;8.32;1.50;;;;;;;13.06;64.02;102736.47;5052115;28;20118;-53
2021/04/13 09:14:50;;;;;;;6.63;1.88;;;;;;;13.55;64.46;102739.22;5046101;28;20047;-52
2021/04/13 09:17:53;;;;;;;8.40;2.65;;;;;;;14.48;63.37;102734.47;5051359;28;20049;-51
2021/04/13 09:20:22;;;;;;;4.75;1.48;;;;;;;15.13;60.94;102734.38;5044922;28;20109;-51
2021/04/13 09:23:12;;;;;;;4.00;2.25;;;;;;;15.03;60.97;102741.13;5050200;28;20472;-56
2021/04/13 09:25:56;;;;;;;4.13;1.80;;;;;;;14.95;60.62;102738.31;5036843;28;20091;-48
2021/04/13 09:28:25;;;;;;;7.38;2.28;;;;;;;15.47;59.28;102741.94;5051398;28;20037;-52
2021/04/13 09:31:01;;;;;;;4.78;1.80;;;;;;;15.44;58.16;102743.41;5034026;28;20075;-48
2021/04/13 09:33:34;;;;;;;2.00;1.63;;;;;;;14.78;57.33;102749.44;5051442;28;20053;-49
2021/04/13 09:36:15;;;;;;;5.75;1.88;;;;;;;14.80;55.60;102742.38;5050300;28;20072;-50
2021/04/13 09:39:05;;;;;;;2.35;1.00;;;;;;;14.80;56.59;102731.22;5045841;28;20470;-50
2021/04/13 09:42:10;;;;;;;4.28;1.08;;;;;;;15.01;56.86;102729.44;5050588;28;20131;-49
2021/04/13 09:45:15;;;;;;;4.07;1.73;;;;;;;15.67;55.30;102730.13;5050309;28;20222;-55
2021/04/13 09:48:28;;;;;;;3.50;1.60;;;;;;;16.11;54.57;102726.84;5030719;28;20053;-50
2021/04/13 09:51:17;;;;;;;3.75;1.08;;;;;;;16.29;54.35;102728.41;5029629;28;20128;-50
2021/04/13 09:53:56;;;;;;;2.50;1.67;;;;;;;15.36;53.04;102738.66;5049263;28;20494;-51
2021/04/13 09:57:01;;;;;;;2.58;1.33;;;;;;;15.08;52.43;102721.44;5049575;28;20135;-46
2021/04/13 10:00:04;;;;;;;1.85;1.13;;;;;;;15.57;52.17;102734.06;5041204;28;20114;-44
2021/04/13 10:02:52;;;;;;;2.97;1.30;;;;;;;16.15;50.15;102730.59;5038659;28;20099;-47
2021/04/13 10:05:45;;;;;;;3.83;1.30;;;;;;;16.49;51.99;102731.63;5040223;28;20057;-48
2021/04/13 10:08:34;;;;;;;8.52;1.65;;;;;;;16.68;50.91;102732.84;5050175;28;20049;-47
2021/04/13 10:12:01;;;;;;;4.15;1.65;;;;;;;16.54;50.04;102728.66;5049866;28;20049;-47
2021/04/13 10:14:50;;;;;;;1.73;1.30;;;;;;;16.48;50.96;102735.56;5049586;28;20135;-48
2021/04/13 10:18:28;;;;;;;6.32;1.55;;;;;;;16.03;47.05;102736.09;5049007;28;20151;-49
2021/04/13 10:21:38;;;;;;;2.78;1.05;;;;;;;15.60;50.14;102738.16;5047432;28;20044;-46
2021/04/13 10:24:44;;;;;;;3.38;0.90;;;;;;;15.83;50.68;102732.03;5048346;28;20064;-46
2021/04/13 10:27:55;;;;;;;7.53;0.80;;;;;;;15.97;48.44;102726.25;5050666;28;20053;-47
2021/04/13 10:30:26;;;;;;;2.75;0.70;;;;;;;15.38;50.38;102727.16;5050496;28;20131;-44
2021/04/13 10:33:21;;;;;;;2.63;1.17;;;;;;;14.60;50.16;102741.06;5049105;28;20048;-47
2021/04/13 10:36:07;;;;;;;1.67;1.02;;;;;;;14.14;51.70;102728.72;5031893;28;20045;-44
2021/04/13 10:39:22;;;;;;;6.10;1.27;;;;;;;14.74;51.25;102726.16;5042740;28;20049;-49
2021/04/13 10:42:27;;;;;;;2.15;0.75;;;;;;;15.23;49.55;102729.31;5047973;28;20149;-46
2021/04/13 10:45:19;;;;;;;3.05;0.88;;;;;;;14.90;50.71;102736.53;5050604;28;20053;-46
2021/04/13 10:48:05;;;;;;;4.32;0.80;;;;;;;14.48;51.67;102734.47;5046232;28;20682;-50
2021/04/13 10:50:50;;;;;;;3.75;1.48;;;;;;;13.94;51.87;102728.16;5047777;28;20098;-49
2021/04/13 10:53:51;;;;;;;3.53;0.90;;;;;;;13.30;52.14;102731.47;5032040;28;20064;-48
2021/04/13 10:56:54;;;;;;;2.00;0.68;;;;;;;13.13;53.18;102728.56;5034017;28;20041;-46
2021/04/13 10:59:39;;;;;;;2.03;0.73;;;;;;;13.49;53.02;102712.63;5038696;28;20045;-54
2021/04/13 11:02:30;;;;;;;1.90;0.80;;;;;;;13.79;52.72;102722.16;5041576;28;20144;-49
2021/04/13 11:05:18;;;;;;;4.88;0.90;;;;;;;13.91;51.40;102737.13;5040463;28;20063;-54
2021/04/13 11:08:03;;;;;;;2.13;1.25;;;;;;;13.67;52.57;102724.69;5047598;28;20048;-53
2021/04/13 11:11:01;;;;;;;1.55;0.70;;;;;;;13.75;51.45;102719.19;5048832;28;20127;-51
2021/04/13 11:14:09;;;;;;;1.48;0.60;;;;;;;13.94;51.79;102725.34;5047310;28;20069;-47
2021/04/13 11:17:23;;;;;;;2.40;1.17;;;;;;;13.99;51.59;102711.28;5047534;28;20463;-48
2021/04/13 11:20:13;;;;;;;3.88;0.80;;;;;;;14.21;51.93;102718.75;5034147;28;20456;-49
2021/04/13 11:22:56;;;;;;;2.30;0.70;;;;;;;14.27;52.17;102717.44;5043855;28;20786;-47
2021/04/13 11:25:52;;;;;;;1.90;0.60;;;;;;;14.07;50.75;102717.22;5037014;28;20044;-48
2021/04/13 11:28:41;;;;;;;1.40;0.57;;;;;;;13.71;50.46;102718.19;5047590;28;20451;-51
2021/04/13 11:31:14;;;;;;;1.23;0.68;;;;;;;13.43;50.76;102722.25;5047540;28;20076;-47
2021/04/13 11:33:49;;;;;;;2.50;0.60;;;;;;;13.29;51.74;102722.31;5030488;28;20156;-50
2021/04/13 11:36:49;;;;;;;4.93;0.70;;;;;;;13.41;51.54;102716.19;5019564;28;20522;-51
2021/04/13 11:39:58;;;;;;;1.15;0.50;;;;;;;13.32;51.32;102712.50;5021653;28;20071;-49
2021/04/13 11:42:50;;;;;;;2.85;0.57;;;;;;;13.10;51.18;102726.41;5028315;28;20046;-50
2021/04/13 11:45:59;;;;;;;1.33;0.50;;;;;;;12.95;51.59;102718.38;5028832;28;20151;-55
2021/04/13 11:49:20;;;;;;;2.90;0.70;;;;;;;12.86;52.56;102725.84;5032390;28;20055;-51
2021/04/13 11:52:24;;;;;;;4.22;1.02;;;;;;;12.63;52.92;102725.75;5027262;28;20123;-50
2021/04/13 11:55:29;;;;;;;1.75;0.90;;;;;;;12.42;53.48;102726.50;5027963;28;20448;-52
2021/04/13 11:58:23;;;;;;;1.95;0.73;;;;;;;12.39;53.42;102727.94;5014607;28;20045;-50
2021/04/13 12:01:13;;;;;;;2.60;0.65;;;;;;;12.37;53.34;102724.66;5032761;28;20095;-51
2021/04/13 12:04:06;;;;;;;3.10;0.70;;;;;;;12.43;53.41;102728.16;5018987;28;20050;-55
2021/04/13 12:06:59;;;;;;;2.08;0.63;;;;;;;12.49;52.69;102726.94;5022966;28;20050;-49
2021/04/13 12:09:57;;;;;;;1.55;0.45;;;;;;;12.66;52.62;102733.47;5021809;28;20426;-51
2021/04/13 12:12:46;;;;;;;2.53;0.32;;;;;;;12.79;52.58;102729.03;5024382;28;21076;-52
2021/04/13 12:15:32;;;;;;;1.33;0.17;;;;;;;12.92;52.25;102733.72;5025513;28;20056;-54
2021/04/13 12:18:38;;;;;;;0.40;0.30;;;;;;;12.99;51.03;102725.81;5048033;28;20407;-48
2021/04/13 12:21:25;;;;;;;4.97;1.90;;;;;;;12.93;52.30;102726.22;5032909;28;20049;-51
2021/04/13 12:24:45;;;;;;;4.85;1.63;;;;;;;12.65;54.31;102729.06;5043520;28;20045;-47
2021/04/13 12:27:31;;;;;;;5.15;1.33;;;;;;;12.53;54.54;102728.75;5040424;28;20041;-47
2021/04/13 12:30:32;;;;;;;2.30;1.05;;;;;;;12.40;54.65;102723.22;5032185;28;20045;-48
2021/04/13 12:33:24;;;;;;;4.70;2.60;;;;;;;12.30;54.91;102728.97;5049485;28;20073;-53
2021/04/13 12:36:11;;;;;;;18.33;10.30;;;;;;;12.19;55.34;102722.81;5055685;28;20409;-53
2021/04/13 12:39:00;;;;;;;7.72;2.92;;;;;;;12.07;55.67;102722.50;5045221;28;20461;-50
2021/04/13 12:41:59;;;;;;;11.00;4.75;;;;;;;11.97;56.21;102719.91;5050062;28;20430;-52